Time;durP1;ratioP1;P1;durP2;ratioP2;P2;SDS_P1;SDS_P2;PMS_P1;PMS_P2;Temp;Humidity;BMP_temperature;BMP_pressure;BME280_temperature;BME280_humidity;BME280_pressure;Samples;Min_cycle;Max_cycle;Signal;HPM_P1;HPM_P2
2024/02/04 00:02:16;;;;;;;11.15;8.40;;;;;;;7.96;56.18;96083.47;6244144;22;20028;-87
2024/02/04 00:04:41;;;;;;;12.05;8.77;;;;;;;7.87;55.58;96073.94;6243875;23;20012;-87
2024/02/04 00:07:09;;;;;;;11.38;8.65;;;;;;;7.96;55.51;96088.66;6193653;23;20087;-86
2024/02/04 00:09:37;;;;;;;11.27;8.68;;;;;;;7.79;56.47;96103.94;6218663;23;20123;-87
2024/02/04 00:12:03;;;;;;;13.13;8.90;;;;;;;7.61;57.00;96074.50;6219086;23;20015;-86
2024/02/04 00:14:29;;;;;;;10.45;8.00;;;;;;;7.56;56.64;96074.94;6193255;23;20008;-86
2024/02/04 00:21:55;;;;;;;13.75;8.82;;;;;;;7.43;56.37;96108.84;6243666;22;20023;-87
2024/02/04 00:24:23;;;;;;;11.82;8.60;;;;;;;7.46;56.41;96107.75;6243533;23;20015;-86
2024/02/04 00:26:49;;;;;;;11.27;8.18;;;;;;;7.59;55.46;96112.66;6219301;23;20035;-87
2024/02/04 00:29:14;;;;;;;10.65;7.63;;;;;;;7.43;55.97;96113.22;6192931;23;20004;-86
2024/02/04 00:31:40;;;;;;;12.20;8.48;;;;;;;7.48;56.20;96117.97;6218114;23;20073;-87
2024/02/04 00:49:37;;;;;;;10.20;8.00;;;;;;;7.15;57.21;96136.31;6242638;22;20012;-87
2024/02/04 00:52:03;;;;;;;14.07;9.27;;;;;;;7.05;57.32;96131.13;6243219;23;20066;-87
2024/02/04 00:54:28;;;;;;;13.25;8.32;;;;;;;7.14;56.79;96154.56;6218091;23;20008;-86
2024/02/04 00:56:55;;;;;;;11.48;8.88;;;;;;;7.21;57.02;96168.63;6218286;23;20035;-87
2024/02/04 00:59:20;;;;;;;12.43;9.15;;;;;;;7.12;56.85;96159.06;6193753;23;20066;-86
2024/02/04 01:06:46;;;;;;;13.40;10.27;;;;;;;6.82;58.18;96160.75;6243241;22;20042;-87
2024/02/04 01:09:11;;;;;;;14.90;10.05;;;;;;;6.85;58.68;96170.81;6192930;23;20015;-87
2024/02/04 01:11:37;;;;;;;13.73;10.13;;;;;;;6.83;58.56;96177.91;6218030;23;20075;-87
2024/02/04 01:14:05;;;;;;;14.15;11.05;;;;;;;6.58;59.40;96179.97;6193036;23;20047;-86
2024/02/04 01:16:30;;;;;;;16.20;11.05;;;;;;;6.68;59.66;96197.28;6193983;23;20046;-87
2024/02/04 01:26:31;;;;;;;14.13;10.57;;;;;;;6.61;58.93;96171.97;6242100;22;20008;-88
2024/02/04 01:28:58;;;;;;;15.82;11.45;;;;;;;6.59;59.01;96154.97;6217714;23;20016;-88
2024/02/04 01:31:23;;;;;;;17.17;11.02;;;;;;;6.73;58.63;96151.19;6218155;23;20000;-87
2024/02/04 01:33:49;;;;;;;17.98;12.38;;;;;;;6.62;59.04;96160.66;6192756;23;20020;-87
2024/02/04 01:36:14;;;;;;;21.85;13.93;;;;;;;6.41;60.08;96149.56;6218156;23;20087;-86
2024/02/04 01:38:40;;;;;;;21.17;14.63;;;;;;;6.28;61.15;96157.50;6167824;23;20008;-86
2024/02/04 01:48:41;;;;;;;16.20;10.73;;;;;;;6.20;60.01;96121.97;6213383;23;20079;-86
2024/02/04 01:51:06;;;;;;;19.30;13.82;;;;;;;6.32;59.48;96122.75;6162553;23;20009;-86
2024/02/04 01:53:34;;;;;;;18.48;12.82;;;;;;;6.33;59.64;96131.31;6187610;23;20012;-87
2024/02/04 01:55:59;;;;;;;22.73;15.55;;;;;;;6.36;59.99;96121.53;6187098;23;20007;-87
2024/02/04 01:58:25;;;;;;;21.23;14.57;;;;;;;6.28;61.13;96120.53;6187399;23;20091;-86
2024/02/04 02:00:51;;;;;;;20.17;14.90;;;;;;;6.26;60.63;96120.66;6186477;23;20028;-86
2024/02/04 02:11:02;;;;;;;19.90;13.75;;;;;;;5.88;60.93;96078.97;6212950;23;20032;-87
2024/02/04 02:13:32;;;;;;;25.10;15.60;;;;;;;5.84;61.44;96087.09;6187181;23;20023;-87
2024/02/04 02:16:17;;;;;;;28.43;17.30;;;;;;;5.75;62.34;96083.53;6187172;23;20013;-87
2024/02/04 02:18:48;;;;;;;32.20;18.67;;;;;;;6.10;61.48;96090.13;6187117;23;20008;-87
2024/02/04 02:21:35;;;;;;;57.35;20.27;;;;;;;5.91;63.03;96082.25;6186858;23;20000;-86
2024/02/04 02:29:08;;;;;;;193.48;28.40;;;;;;;5.83;63.92;96059.66;6213090;23;20047;-86
2024/02/04 02:31:36;;;;;;;213.25;31.08;;;;;;;5.90;64.20;96049.63;6162469;23;20059;-86
2024/02/04 02:34:02;;;;;;;318.17;30.92;;;;;;;6.18;63.51;96073.97;6186839;23;20103;-86
2024/02/04 02:36:31;;;;;;;458.75;38.15;;;;;;;6.09;63.69;96074.75;6162137;23;20038;-86
2024/02/04 02:39:01;;;;;;;69.13;21.50;;;;;;;6.20;63.44;96056.59;6240489;22;20027;-87
2024/02/04 02:41:30;;;;;;;261.15;34.33;;;;;;;6.23;63.68;96072.66;6217017;23;20004;-86
2024/02/04 02:43:57;;;;;;;142.23;28.98;;;;;;;6.14;63.37;96067.44;6216464;23;20007;-86
2024/02/04 02:46:23;;;;;;;76.60;25.13;;;;;;;6.37;63.04;96088.75;6192130;23;20004;-86
2024/02/04 02:48:49;;;;;;;129.65;29.20;;;;;;;6.37;62.94;96088.75;6217148;23;20011;-87
2024/02/04 02:51:16;;;;;;;49.38;22.80;;;;;;;6.24;63.45;96097.56;6191566;23;20004;-86
2024/02/04 02:56:17;;;;;;;76.07;26.13;;;;;;;6.29;63.37;96101.50;6158754;23;20044;-86
2024/02/04 02:58:42;;;;;;;82.32;27.67;;;;;;;6.20;64.09;96101.31;6157483;23;20017;-86
2024/02/04 03:01:11;;;;;;;53.45;24.45;;;;;;;6.06;63.70;96102.47;6132363;23;20012;-88
2024/02/04 03:06:02;;;;;;;51.08;24.52;;;;;;;6.20;63.75;96097.91;6189333;22;20100;-87
2024/02/04 03:08:28;;;;;;;67.97;23.08;;;;;;;6.51;62.95;96126.34;6127268;23;20009;-87
2024/02/04 03:10:53;;;;;;;113.00;22.92;;;;;;;6.42;62.71;96115.03;6102641;23;20014;-87
2024/02/04 03:13:19;;;;;;;138.20;27.15;;;;;;;6.46;62.66;96130.13;6127133;23;20094;-87
2024/02/04 03:15:48;;;;;;;161.80;26.52;;;;;;;6.25;63.31;96119.03;6103211;23;20021;-87
2024/02/04 03:18:14;;;;;;;188.05;27.85;;;;;;;6.35;63.25;96156.06;6127072;23;20036;-87
2024/02/04 03:20:41;;;;;;;55.60;21.10;;;;;;;6.33;63.27;96152.78;6102264;23;20061;-87
2024/02/04 03:23:06;;;;;;;154.65;27.02;;;;;;;6.15;63.47;96141.38;6127082;23;20002;-87
2024/02/04 03:25:32;;;;;;;212.80;29.30;;;;;;;6.15;63.84;96147.41;6127332;23;20070;-87
2024/02/04 03:27:57;;;;;;;193.70;28.90;;;;;;;6.18;63.92;96141.16;6103124;23;20009;-88
2024/02/04 03:30:23;;;;;;;333.80;35.53;;;;;;;6.21;64.08;96154.63;6102619;23;20013;-87
2024/02/04 03:35:23;;;;;;;538.75;39.42;;;;;;;5.86;65.34;96153.16;6228297;22;20024;-86
2024/02/04 03:37:49;;;;;;;285.98;31.95;;;;;;;6.08;64.76;96156.59;6191694;23;20012;-86
2024/02/04 03:40:14;;;;;;;279.20;32.65;;;;;;;6.07;65.48;96175.59;6216396;23;20008;-86
2024/02/04 03:42:40;;;;;;;274.58;32.72;;;;;;;6.28;64.77;96179.94;6191215;23;20015;-87
2024/02/04 03:47:31;;;;;;;206.43;33.80;;;;;;;6.42;64.01;96169.28;6211218;23;20024;-87
2024/02/04 03:49:57;;;;;;;213.05;29.42;;;;;;;6.19;64.70;96160.88;6162054;23;20012;-87
2024/02/04 03:52:22;;;;;;;237.68;31.52;;;;;;;6.23;64.24;96160.47;6186103;23;20009;-86
2024/02/04 03:54:48;;;;;;;188.73;28.55;;;;;;;6.28;64.75;96174.78;6186404;23;20013;-87
2024/02/04 04:02:14;;;;;;;271.98;32.03;;;;;;;6.26;64.92;96190.41;6182552;23;20054;-87
2024/02/04 04:04:47;;;;;;;393.35;33.55;;;;;;;6.40;64.73;96203.00;6132004;23;20009;-85
2024/02/04 04:07:12;;;;;;;446.30;37.95;;;;;;;6.41;64.66;96196.88;6132936;23;20020;-85
2024/02/04 04:09:38;;;;;;;454.17;36.65;;;;;;;6.41;64.84;96194.28;6156581;23;20017;-86
2024/02/04 04:14:30;;;;;;;519.30;40.45;;;;;;;6.39;64.70;96200.56;6205746;22;20040;-86
2024/02/04 04:16:58;;;;;;;552.08;42.25;;;;;;;6.42;64.64;96188.19;6132320;23;20005;-88
2024/02/04 04:19:24;;;;;;;371.70;34.95;;;;;;;6.32;65.13;96196.81;6132604;23;20009;-86
2024/02/04 04:21:53;;;;;;;696.90;48.35;;;;;;;6.22;65.68;96204.53;6156610;23;20065;-87
2024/02/04 04:24:21;;;;;;;329.70;36.90;;;;;;;6.34;64.80;96195.78;6157206;23;20021;-87
2024/02/04 04:29:22;;;;;;;331.52;34.92;;;;;;;6.28;65.04;96201.44;6182119;23;20082;-87
2024/02/04 04:31:48;;;;;;;309.48;34.30;;;;;;;6.29;64.99;96199.69;6107825;23;20009;-87
2024/02/04 04:34:13;;;;;;;198.50;30.30;;;;;;;6.19;65.26;96210.78;6109237;23;20013;-87
2024/02/04 04:36:39;;;;;;;233.75;32.17;;;;;;;5.97;65.88;96195.38;6133482;23;20009;-87
2024/02/04 04:39:04;;;;;;;192.07;30.10;;;;;;;6.07;65.76;96199.69;6158147;23;20004;-87
2024/02/04 04:41:30;;;;;;;193.88;30.92;;;;;;;6.23;64.86;96196.66;6109538;23;20012;-86
2024/02/04 04:43:55;;;;;;;203.60;26.38;;;;;;;6.25;65.04;96186.19;6133508;23;20020;-87
2024/02/04 04:46:24;;;;;;;266.52;31.02;;;;;;;5.95;65.33;96181.75;6109270;23;20013;-88
2024/02/04 04:48:49;;;;;;;314.95;32.30;;;;;;;5.81;66.04;96183.69;6134486;23;20088;-87
2024/02/04 04:51:15;;;;;;;249.40;32.30;;;;;;;5.97;65.27;96183.28;6133216;23;20044;-87
2024/02/04 04:56:06;;;;;;;181.38;30.05;;;;;;;5.74;66.35;96164.47;6236190;22;20020;-87
2024/02/04 04:58:32;;;;;;;234.05;30.00;;;;;;;6.00;65.19;96170.13;6192731;23;20038;-87
2024/02/04 05:00:57;;;;;;;135.07;27.70;;;;;;;6.16;64.45;96155.94;6167495;23;20012;-87
2024/02/04 05:03:25;;;;;;;354.75;36.28;;;;;;;5.98;65.33;96168.63;6218009;23;20022;-86
2024/02/04 05:08:25;;;;;;;307.25;31.85;;;;;;;6.18;64.79;96149.69;6213592;22;20021;-87
2024/02/04 05:10:51;;;;;;;249.40;29.13;;;;;;;5.90;65.08;96150.31;6187414;23;20082;-86
2024/02/04 05:13:16;;;;;;;234.90;30.48;;;;;;;5.73;65.45;96146.53;6162595;23;20017;-86
2024/02/04 05:15:43;;;;;;;237.15;29.55;;;;;;;5.41;66.83;96137.06;6187527;23;20028;-87
2024/02/04 05:18:09;;;;;;;182.80;28.52;;;;;;;5.58;65.90;96133.09;6162440;23;20019;-87
2024/02/04 05:20:34;;;;;;;276.63;32.17;;;;;;;5.39;66.06;96119.09;6187163;23;20019;-87
2024/02/04 05:28:00;;;;;;;242.35;32.95;;;;;;;5.62;64.44;96114.66;6222441;22;20024;-87
2024/02/04 05:30:26;;;;;;;323.27;30.55;;;;;;;5.72;64.33;96119.91;6217272;23;20012;-86
2024/02/04 05:32:54;;;;;;;306.30;31.98;;;;;;;5.74;64.49;96138.66;6217448;23;20015;-86
2024/02/04 05:35:19;;;;;;;245.50;30.17;;;;;;;5.39;65.79;96133.78;6193118;23;20044;-86
2024/02/04 05:40:20;;;;;;;251.02;32.13;;;;;;;5.64;64.81;96148.09;6197651;22;20020;-86
2024/02/04 05:42:45;;;;;;;97.03;24.50;;;;;;;5.70;65.20;96152.75;6187307;23;20022;-87
2024/02/04 05:45:12;;;;;;;146.45;27.42;;;;;;;5.75;65.03;96153.22;6187182;23;20004;-86
2024/02/04 05:47:37;;;;;;;361.27;32.47;;;;;;;5.63;65.50;96151.59;6187918;23;20013;-86
2024/02/04 05:50:03;;;;;;;217.95;30.45;;;;;;;5.70;64.92;96155.34;6162719;23;20014;-87
2024/02/04 05:55:04;;;;;;;147.82;33.08;;;;;;;4.91;66.45;96160.72;6210297;22;20027;-88
2024/02/04 05:57:29;;;;;;;82.55;23.60;;;;;;;5.39;65.22;96165.53;6192345;23;20020;-86
2024/02/04 05:59:55;;;;;;;115.25;24.88;;;;;;;5.36;64.95;96155.47;6191772;23;20015;-86
2024/02/04 06:02:21;;;;;;;308.77;31.50;;;;;;;4.86;67.05;96166.22;6217077;23;20008;-86
2024/02/04 06:07:12;;;;;;;188.95;30.65;;;;;;;5.26;65.80;96152.78;6172091;23;20021;-86
2024/02/04 06:09:37;;;;;;;453.00;38.88;;;;;;;4.48;67.44;96149.38;6162552;23;20020;-86
2024/02/04 06:12:06;;;;;;;547.03;42.65;;;;;;;4.77;68.17;96168.69;6162357;23;20004;-87
2024/02/04 06:14:33;;;;;;;531.75;41.17;;;;;;;4.20;69.62;96155.78;6212354;23;20004;-86
2024/02/04 06:21:59;;;;;;;410.52;38.47;;;;;;;4.96;67.76;96162.94;6241592;22;20046;-87
2024/02/04 06:24:25;;;;;;;255.95;39.90;;;;;;;5.13;66.91;96166.78;6191904;23;20012;-87
2024/02/04 06:26:52;;;;;;;339.15;34.60;;;;;;;4.86;67.63;96171.38;6192115;23;20015;-87
2024/02/04 06:34:19;;;;;;;369.83;33.95;;;;;;;5.43;66.48;96177.25;6236617;22;20031;-86
2024/02/04 06:36:45;;;;;;;471.63;37.42;;;;;;;5.41;66.41;96166.25;6192016;23;20011;-85
2024/02/04 06:39:11;;;;;;;606.97;42.20;;;;;;;5.49;66.54;96176.75;6216995;23;20034;-85
2024/02/04 06:41:36;;;;;;;437.98;36.35;;;;;;;5.46;66.35;96182.19;6217274;23;20009;-86
2024/02/04 06:44:04;;;;;;;539.40;38.20;;;;;;;5.52;66.24;96192.94;6191780;23;20162;-87
2024/02/04 06:46:30;;;;;;;483.27;35.25;;;;;;;5.76;65.13;96201.31;6216888;23;20031;-87
2024/02/04 06:59:16;;;;;;;435.38;36.05;;;;;;;5.53;65.87;96207.50;6240937;22;20008;-86
2024/02/04 07:01:41;;;;;;;286.42;32.55;;;;;;;5.60;65.99;96221.56;6241309;23;20023;-86
2024/02/04 07:04:07;;;;;;;266.90;31.13;;;;;;;5.76;65.96;96229.69;6191989;23;20012;-86
2024/02/04 07:06:33;;;;;;;235.00;27.38;;;;;;;6.08;64.30;96223.75;6216615;23;20008;-86
2024/02/04 07:08:59;;;;;;;138.88;24.08;;;;;;;5.81;65.65;96243.06;6216770;23;20008;-86
2024/02/04 07:26:58;;;;;;;393.23;31.20;;;;;;;5.49;66.08;96240.47;6237446;22;20020;-86
2024/02/04 07:34:25;;;;;;;301.13;27.35;;;;;;;5.55;66.48;96226.25;6239910;22;20035;-87
2024/02/04 07:36:55;;;;;;;261.08;26.48;;;;;;;5.64;65.07;96230.69;6216931;23;19996;-87
2024/02/04 07:39:22;;;;;;;259.98;26.50;;;;;;;5.57;65.82;96230.34;6216258;23;20058;-86
2024/02/04 07:41:47;;;;;;;292.00;26.00;;;;;;;5.41;67.24;96251.38;6191409;23;20019;-87
2024/02/04 07:51:58;;;;;;;390.08;30.10;;;;;;;4.87;67.84;96226.31;6242037;22;20075;-87
2024/02/04 07:54:23;;;;;;;307.40;29.42;;;;;;;4.77;68.55;96225.41;6216685;23;20016;-86
2024/02/04 07:56:52;;;;;;;361.42;29.10;;;;;;;4.90;68.87;96226.09;6191295;23;20004;-87
2024/02/04 07:59:18;;;;;;;221.77;24.77;;;;;;;5.09;68.04;96217.78;6216134;23;20015;-87
2024/02/04 08:35:20;;;;;;;97.82;18.92;;;;;;;6.38;64.35;96170.50;6238900;22;20031;-86
2024/02/04 08:37:46;;;;;;;111.95;20.48;;;;;;;6.44;64.39;96157.88;6192838;23;20016;-87
2024/02/04 08:40:12;;;;;;;210.93;20.98;;;;;;;6.34;64.48;96172.53;6218599;23;20083;-86
2024/02/04 08:42:37;;;;;;;114.93;19.15;;;;;;;6.45;64.02;96180.19;6193231;23;20000;-87
2024/02/04 08:45:03;;;;;;;100.97;19.13;;;;;;;6.44;64.60;96183.72;6243150;23;20019;-86
2024/02/04 08:47:28;;;;;;;87.00;18.63;;;;;;;6.70;63.62;96172.97;6218992;23;20004;-87
2024/02/04 08:49:55;;;;;;;153.50;20.13;;;;;;;6.61;63.95;96171.97;6199554;23;20058;-86
2024/02/04 08:52:20;;;;;;;156.13;20.50;;;;;;;6.53;64.09;96160.63;6260273;23;20010;-85
2024/02/04 08:54:45;;;;;;;118.70;18.67;;;;;;;6.64;63.45;96176.06;6236637;23;20008;-87
2024/02/04 08:57:11;;;;;;;134.07;20.77;;;;;;;6.43;64.83;96178.66;6237894;23;20058;-87
2024/02/04 08:59:36;;;;;;;108.68;19.75;;;;;;;6.67;63.71;96172.41;6259467;22;20023;-88
2024/02/04 09:02:05;;;;;;;292.27;24.23;;;;;;;6.59;64.33;96181.63;6212055;23;20001;-86
2024/02/04 09:04:31;;;;;;;188.85;21.15;;;;;;;6.83;63.40;96178.72;6235806;23;20023;-87
2024/02/04 09:06:56;;;;;;;475.63;30.60;;;;;;;6.67;63.65;96164.66;6233241;23;20062;-86
2024/02/04 09:17:02;;;;;;;196.43;21.83;;;;;;;6.56;64.00;96158.59;6213507;23;20051;-86
2024/02/04 09:21:54;;;;;;;318.50;25.13;;;;;;;6.81;63.20;96164.28;6187937;23;20103;-86
2024/02/04 09:24:21;;;;;;;551.30;30.90;;;;;;;6.75;63.47;96172.56;6188165;23;20048;-87
2024/02/04 09:26:47;;;;;;;507.63;29.73;;;;;;;6.70;63.81;96175.56;6213362;23;20012;-87
2024/02/04 09:29:12;;;;;;;228.65;23.52;;;;;;;6.69;63.99;96165.34;6189056;23;20016;-85
2024/02/04 09:36:48;;;;;;;228.30;21.80;;;;;;;6.92;63.71;96156.44;6242993;22;20087;-86
2024/02/04 09:39:14;;;;;;;86.88;18.88;;;;;;;7.20;63.52;96167.81;6193815;23;20016;-86
2024/02/04 09:41:39;;;;;;;125.82;19.60;;;;;;;7.37;63.30;96174.09;6193542;23;20011;-87
2024/02/04 09:44:06;;;;;;;60.08;17.50;;;;;;;7.54;63.36;96167.44;6193298;23;20031;-86
2024/02/04 09:48:58;;;;;;;191.80;20.38;;;;;;;7.34;63.89;96161.41;6231844;22;20016;-86
2024/02/04 09:51:28;;;;;;;51.75;17.20;;;;;;;7.66;63.61;96160.38;6192489;23;20019;-86
2024/02/04 09:53:58;;;;;;;80.22;18.98;;;;;;;7.79;63.58;96181.63;6192648;23;20095;-86
2024/02/04 09:56:25;;;;;;;121.38;19.20;;;;;;;7.75;63.32;96156.13;6217414;23;20015;-86
2024/02/04 09:58:52;;;;;;;131.98;19.27;;;;;;;7.92;63.01;96160.63;6217048;23;20007;-86
2024/02/04 10:01:18;;;;;;;56.60;16.77;;;;;;;7.79;62.76;96150.56;6233829;22;20028;-87
2024/02/04 10:03:47;;;;;;;34.05;15.73;;;;;;;8.19;61.34;96164.28;6216993;23;20037;-86
2024/02/04 10:06:13;;;;;;;40.00;16.50;;;;;;;8.06;61.79;96166.34;6218215;23;20009;-87
2024/02/04 10:08:39;;;;;;;49.97;17.27;;;;;;;7.94;61.64;96168.25;6217644;23;20014;-86
2024/02/04 10:11:04;;;;;;;147.80;18.92;;;;;;;7.63;62.36;96181.34;6192246;23;20036;-87
2024/02/04 10:13:48;;;;;;;69.72;17.60;;;;;;;7.77;62.16;96167.19;6242524;22;20028;-87
2024/02/04 10:16:20;;;;;;;135.52;20.45;;;;;;;8.15;61.54;96184.47;6216943;23;20016;-87
2024/02/04 10:18:47;;;;;;;364.33;25.58;;;;;;;8.18;61.34;96176.41;6216689;23;20004;-88
2024/02/04 10:23:41;;;;;;;300.83;22.92;;;;;;;7.81;62.15;96173.72;6234751;22;20099;-86
2024/02/04 10:31:17;;;;;;;416.35;27.13;;;;;;;7.87;61.08;96174.94;6241065;22;20023;-86
2024/02/04 10:33:43;;;;;;;154.85;21.80;;;;;;;7.51;63.56;96185.03;6241453;23;20011;-86
2024/02/04 10:36:09;;;;;;;283.35;24.10;;;;;;;7.52;63.87;96171.09;6216509;23;20000;-87
2024/02/04 10:38:37;;;;;;;174.98;21.92;;;;;;;7.92;62.86;96188.28;6242039;23;20007;-86
2024/02/04 10:43:35;;;;;;;362.95;25.20;;;;;;;7.87;61.58;96156.81;6186890;23;20016;-87
2024/02/04 10:46:15;;;;;;;334.05;22.65;;;;;;;7.29;63.08;96173.97;6187055;23;20024;-85
2024/02/04 10:48:44;;;;;;;271.98;23.35;;;;;;;7.26;63.67;96168.22;6187066;23;20005;-88
2024/02/04 10:51:18;;;;;;;174.80;21.15;;;;;;;7.42;63.34;96159.00;6211903;23;20001;-86
2024/02/04 10:53:44;;;;;;;228.77;21.63;;;;;;;7.65;62.48;96148.34;6211842;23;20087;-87
2024/02/04 10:56:29;;;;;;;355.80;25.85;;;;;;;7.41;62.49;96156.53;6212320;23;20012;-87
2024/02/04 10:58:56;;;;;;;278.02;22.52;;;;;;;7.40;63.87;96158.28;6212038;23;20007;-87
2024/02/04 11:01:23;;;;;;;57.40;20.95;;;;;;;7.29;65.16;96158.44;6211953;23;20003;-87
2024/02/04 11:08:43;;;;;;;35.17;17.95;;;;;;;8.29;63.89;96140.94;6240303;22;20016;-86
2024/02/04 11:11:09;;;;;;;30.63;16.35;;;;;;;8.49;62.51;96147.72;6216961;23;20055;-86
2024/02/04 11:13:37;;;;;;;29.20;16.08;;;;;;;8.53;61.89;96128.34;6216387;23;20036;-87
2024/02/04 11:16:12;;;;;;;27.75;15.68;;;;;;;8.59;62.13;96129.53;6217018;23;20035;-87
2024/02/04 11:21:22;;;;;;;27.27;15.70;;;;;;;8.82;60.51;96140.38;6212481;23;20161;-87
2024/02/04 11:24:08;;;;;;;32.30;15.82;;;;;;;8.74;60.67;96135.09;6185530;23;20004;-87
2024/02/04 11:26:34;;;;;;;28.00;15.13;;;;;;;8.97;59.66;96118.16;6186653;23;20012;-88
2024/02/04 11:29:00;;;;;;;29.05;16.38;;;;;;;8.87;61.69;96130.38;6186180;23;20074;-87
2024/02/04 11:31:28;;;;;;;24.85;15.15;;;;;;;8.94;60.59;96110.66;6186528;23;20015;-87
2024/02/04 11:33:54;;;;;;;25.17;15.30;;;;;;;9.10;60.20;96114.38;6186574;23;20043;-86
2024/02/04 11:36:25;;;;;;;29.27;15.40;;;;;;;9.38;58.93;96108.19;6186248;23;20016;-87
2024/02/04 11:41:27;;;;;;;33.20;15.90;;;;;;;8.80;60.14;96083.44;6240801;22;20035;-87
2024/02/04 11:43:56;;;;;;;74.38;18.13;;;;;;;8.51;60.79;96091.38;6218951;23;20015;-86
2024/02/04 11:46:24;;;;;;;28.60;16.10;;;;;;;8.51;61.33;96101.75;6218772;23;20008;-87
2024/02/04 11:48:54;;;;;;;50.20;19.33;;;;;;;8.75;60.82;96083.03;6218036;23;20106;-86
2024/02/04 12:11:53;;;;;;;55.20;17.65;;;;;;;8.77;60.68;96055.19;6242376;22;20008;-87
2024/02/04 12:14:19;;;;;;;51.28;18.58;;;;;;;8.80;61.32;96067.88;6193993;23;20081;-87
2024/02/04 12:16:45;;;;;;;34.47;17.98;;;;;;;9.08;60.90;96073.03;6169215;23;20114;-87
2024/02/04 12:19:11;;;;;;;31.88;17.95;;;;;;;9.18;60.55;96065.19;6218245;23;20014;-86
2024/02/04 12:21:39;;;;;;;33.67;18.55;;;;;;;9.41;61.12;96075.13;6218616;23;20099;-87
2024/02/04 12:24:05;;;;;;;30.35;17.90;;;;;;;9.64;61.11;96075.47;6218982;23;20008;-87
2024/02/04 14:43:15;;;;;;;17.55;12.07;;;;;;;11.98;52.56;95984.56;6239102;22;20073;-87
2024/02/04 14:50:48;;;;;;;16.88;10.65;;;;;;;12.22;51.15;95968.03;6240645;22;20023;-86
2024/02/04 20:08:39;;;;;;;18.95;8.38;;;;;;;9.46;54.78;95992.38;6243079;22;20039;-87
2024/02/04 20:11:04;;;;;;;15.25;7.53;;;;;;;9.55;54.85;96001.84;6217822;23;20016;-87
2024/02/04 20:13:33;;;;;;;17.67;9.45;;;;;;;9.46;54.89;96001.00;6218199;23;20015;-87
2024/02/04 20:15:59;;;;;;;17.83;8.20;;;;;;;9.29;55.18;95999.22;6194011;23;20067;-87
2024/02/04 20:28:38;;;;;;;13.07;8.02;;;;;;;9.60;54.67;95978.84;6186396;22;20009;-87
2024/02/04 20:31:06;;;;;;;15.80;8.30;;;;;;;9.58;54.43;95980.78;6188488;23;20063;-87
2024/02/04 20:33:33;;;;;;;17.60;8.65;;;;;;;9.63;54.51;95970.75;6164004;23;20063;-88
2024/02/04 20:36:01;;;;;;;14.98;8.00;;;;;;;9.72;54.04;95977.63;6188105;23;20005;-87
2024/02/04 20:38:26;;;;;;;18.52;8.05;;;;;;;9.59;54.55;95985.00;6187803;23;20063;-88
2024/02/04 20:55:11;;;;;;;16.30;9.48;;;;;;;9.45;55.03;95973.41;6181822;23;20033;-87
2024/02/04 20:57:37;;;;;;;18.05;8.98;;;;;;;9.41;55.01;95976.47;6157294;23;20021;-87
2024/02/04 21:00:04;;;;;;;16.10;8.95;;;;;;;9.48;54.91;95980.06;6182509;23;20001;-86
2024/02/04 21:02:30;;;;;;;17.98;9.35;;;;;;;9.63;54.53;95975.13;6157883;23;20005;-86
